Pittville, California
Current Conditions -  °F | °C
As of 8:22 AM on Friday 24 Oct 2014 (Local Time) from KAAT Reporting Station
Haze Haze  
Wind Chill: 46°   Ceiling: 10000
Heat Index: 46°   Visibility: 3mi
Dew Point: 44°   Wind: 0mph
Humidity: 93%   Direction: NA
Pressure: 30.04"   Gusts: NA
Location:  40.9954°N, 121.135°W
Report Text: KAAT 241522Z AUTO 00000KT 3SM BR BKN100 08/07 A3004 RMK AO2 T00780067
Loading
Personal Weather Stations






























Interactive Weather Map
Tropical Storm Tracking
New forecast layout! Learn more

10-Day Weather Forecast

Advertisements
Track Severe Weather on mobile